Latest Weather Observations for Eucla

IDW60801

Issued at 8:32 pm WST Monday 30 May 2016 (issued every 30 minutes, with the page automatically refreshed every 10 minutes)

About weather observations | Map of weather stations | Latest weather observations for WA | Other Formats
Station Details ID: 011003 Name: EUCLA Lat: -31.68 Lon: 128.90 Height: 93.1 m
Data from the previous 72 hours. | See also: Recent months at Eucla
Date/Time
WST
Temp
°C
App
Temp
°C
Dew
Point
Rel
Hum
%
Delta-T
°C
Wind Press
QNH
hPa
Press
MSL
hPa
Rain
since 9 am
mm
Dir
 
Spd
km/h
Gust
km/h
Spd
kts
Gust
kts
30/08:30pm 12.3 10.0 9.0 80 1.7 W 11 15 6 8 1020.8 1020.7 0.0
30/08:00pm 12.5 10.4 8.4 76 2.0 W 9 13 5 7 1020.6 1020.5 0.0
30/07:30pm 12.6 10.3 8.9 78 1.9 W 11 15 6 8 1020.4 1020.3 0.0
30/07:00pm 12.6 10.7 8.9 78 1.9 W 9 13 5 7 1020.2 1020.1 0.0
30/06:30pm 12.9 10.9 8.8 76 2.1 WSW 9 13 5 7 1020.0 1019.9 0.0
30/06:00pm 13.0 11.0 8.5 74 2.2 WSW 9 13 5 7 1019.7 1019.5 0.0
30/05:30pm 13.0 11.0 8.5 74 2.3 WSW 9 13 5 7 1019.3 1019.1 0.0
30/05:00pm 13.4 11.5 8.9 74 2.3 WSW 9 13 5 7 1019.1 1018.9 0.0
30/04:30pm 13.8 11.8 8.6 71 2.6 SW 9 11 5 6 1018.7 1018.6 0.0
30/04:00pm 14.8 12.5 9.0 68 3.0 SW 11 17 6 9 1018.3 1018.2 0.0
30/03:30pm 15.6 12.6 7.6 59 4.0 SSW 13 19 7 10 1018.0 1017.9 0.0
30/03:00pm 16.3 13.4 8.3 59 4.1 S 13 17 7 9 1017.8 1017.7 0.0
30/02:30pm 17.6 15.2 8.5 55 4.7 SSW 11 17 6 9 1017.7 1017.6 0.0
30/02:00pm 17.5 13.6 7.0 50 5.2 WSW 17 26 9 14 1017.4 1017.3 0.0
30/01:30pm 17.9 13.7 5.5 44 6.0 WSW 17 26 9 14 1017.3 1017.2 0.0
30/01:00pm 18.3 14.5 5.8 44 6.1 WSW 15 35 8 19 1017.4 1017.3 0.0
30/12:30pm 18.6 13.5 5.8 43 6.3 WNW 22 32 12 17 1017.3 1017.2 0.0
30/12:00pm 17.6 13.9 6.2 47 5.6 W 15 24 8 13 1017.7 1017.6 0.0
30/11:30am 17.5 13.9 6.7 49 5.4 WSW 15 26 8 14 1018.0 1017.9 0.0
30/11:00am 17.1 12.8 7.2 52 5.0 WNW 19 30 10 16 1018.3 1018.2 0.0
30/10:30am 17.9 14.5 7.6 51 5.2 WNW 15 24 8 13 1018.7 1018.6 0.0
30/10:00am 17.1 13.4 8.0 55 4.6 W 17 26 9 14 1019.1 1018.9 0.0
30/09:30am 16.3 13.3 9.3 63 3.6 WNW 15 19 8 10 1019.3 1019.1 0.0
30/09:00am 15.1 12.2 9.5 69 2.9 NW 15 19 8 10 1019.2 1019.0 0.0
30/08:30am 13.9 11.2 9.1 73 2.4 NW 13 19 7 10 1019.2 1019.0 0.0
30/08:00am 11.6 8.8 8.5 81 1.5 NW 13 17 7 9 1019.2 1019.0 0.0
30/07:30am 9.8 6.8 7.7 87 1.0 NW 13 19 7 10 1019.1 1018.9 0.0
30/07:00am 9.6 7.0 7.9 89 0.8 NW 11 13 6 7 1018.7 1018.6 0.0
30/06:30am 8.4 5.7 7.2 92 0.6 NW 11 17 6 9 1018.2 1018.1 0.0
30/06:00am 8.3 5.2 7.1 92 0.6 WNW 13 17 7 9 1018.1 1018.0 0.0
30/05:30am 9.0 6.0 7.5 90 0.7 WNW 13 17 7 9 1017.8 1017.7 0.0
30/05:00am 8.8 5.8 7.6 92 0.6 WNW 13 17 7 9 1017.6 1017.5 0.0
30/04:30am 8.7 6.0 7.5 92 0.6 NW 11 15 6 8 1017.5 1017.4 0.0
30/04:00am 9.6 7.1 8.4 92 0.6 WNW 11 17 6 9 1017.3 1017.2 0.0
30/03:30am 9.1 6.1 7.7 91 0.7 WNW 13 15 7 8 1017.2 1017.1 0.0
30/03:00am 9.5 6.5 7.8 89 0.8 WNW 13 17 7 9 1017.1 1017.0 0.0
30/02:30am 9.3 6.3 7.7 90 0.8 WNW 13 17 7 9 1017.1 1017.0 0.0
30/02:00am 9.6 6.6 7.9 89 0.8 NW 13 15 7 8 1017.2 1017.1 0.0
30/01:30am 10.1 7.6 8.4 89 0.8 WNW 11 15 6 8 1017.1 1017.0 0.0
30/01:00am 9.7 7.2 8.1 90 0.8 NW 11 13 6 7 1017.2 1017.1 0.0
30/12:30am 9.8 7.2 7.9 88 0.9 WNW 11 13 6 7 1017.4 1017.3 0.0
30/12:00am 10.2 7.7 8.3 88 0.9 WNW 11 15 6 8 1017.4 1017.3 0.0
 
Date/Time
WST
Temp
°C
App
Temp
°C
Dew
Point
Rel
Hum
%
Delta-T
°C
Wind Press
QNH
hPa
Press
MSL
hPa
Rain
since 9 am
mm
Dir
 
Spd
km/h
Gust
km/h
Spd
kts
Gust
kts
29/11:30pm 10.5 8.0 8.4 87 1.0 WNW 11 15 6 8 1017.5 1017.4 0.0
29/11:00pm 11.1 8.7 8.5 84 1.3 WNW 11 13 6 7 1017.4 1017.3 0.0
29/10:30pm 13.1 11.0 9.7 80 1.7 WNW 11 15 6 8 1017.5 1017.4 0.0
29/10:00pm 13.1 11.0 9.7 80 1.7 WNW 11 15 6 8 1017.6 1017.5 0.0
29/09:30pm 12.5 10.8 9.9 84 1.3 WNW 9 11 5 6 1017.6 1017.5 0.0
29/09:00pm 13.2 11.4 9.5 78 1.9 WNW 9 13 5 7 1017.5 1017.4 0.0
29/08:30pm 13.4 11.6 9.3 76 2.1 WNW 9 11 5 6 1017.4 1017.3 0.0
29/08:00pm 13.6 11.8 9.3 75 2.2 WNW 9 11 5 6 1017.2 1017.1 0.0
29/07:30pm 13.8 11.9 9.0 73 2.4 W 9 13 5 7 1017.0 1016.9 0.0
29/07:00pm 13.9 11.7 9.3 74 2.4 W 11 15 6 8 1016.8 1016.7 0.0
29/06:30pm 13.8 11.6 9.3 74 2.3 W 11 17 6 9 1016.5 1016.4 0.0
29/06:00pm 14.0 11.9 9.6 75 2.3 WSW 11 15 6 8 1016.2 1016.1 0.0
29/05:30pm 14.1 12.3 9.3 73 2.5 WSW 9 15 5 8 1015.9 1015.8 0.0
29/05:00pm 14.4 12.6 9.4 72 2.6 WSW 9 13 5 7 1015.6 1015.5 0.0
29/04:30pm 15.0 12.9 9.6 70 2.8 SW 11 19 6 10 1015.2 1015.1 0.0
29/04:00pm 15.9 13.4 9.6 66 3.3 SW 13 24 7 13 1014.8 1014.7 0.0
29/03:30pm 16.6 13.3 9.5 63 3.7 SW 17 26 9 14 1014.4 1014.3 0.0
29/03:00pm 16.9 14.2 10.3 65 3.5 SSW 15 24 8 13 1014.1 1014.0 0.0
29/02:30pm 17.0 14.3 10.4 65 3.5 SSW 15 24 8 13 1014.0 1013.9 0.0
29/02:00pm 18.3 15.4 11.1 63 3.9 SSW 17 22 9 12 1013.9 1013.8 0.0
29/01:30pm 18.8 15.7 10.4 58 4.5 WSW 17 33 9 18 1013.7 1013.6 0.0
29/01:00pm 19.2 16.6 9.4 53 5.2 SW 13 19 7 10 1013.5 1013.4 0.0
29/12:30pm 19.1 15.4 9.3 53 5.2 WSW 19 30 10 16 1013.7 1013.6 0.0
29/12:00pm 19.3 15.4 7.1 45 6.2 WSW 17 26 9 14 1013.9 1013.8 0.0
29/11:30am 19.0 15.6 9.2 53 5.2 SW 17 30 9 16 1014.1 1014.0 0.0
29/11:00am 20.0 15.9 7.7 45 6.3 WSW 19 28 10 15 1014.3 1014.2 0.0
29/10:30am 19.3 15.7 8.3 49 5.7 WSW 17 28 9 15 1014.7 1014.6 0.0
29/10:00am 19.0 15.4 8.4 50 5.5 WSW 17 28 9 15 1014.9 1014.8 0.0
29/09:30am 18.4 15.0 7.5 49 5.5 W 15 24 8 13 1014.9 1014.8 0.0
29/09:00am 17.2 14.0 7.0 51 5.1 W 13 19 7 10 1014.7 1014.6 0.6
29/08:30am 16.1 13.3 7.1 55 4.5 NW 11 17 6 9 1014.4 1014.3 0.6
29/08:00am 14.4 11.1 6.5 59 3.8 NW 13 17 7 9 1014.5 1014.4 0.6
29/07:30am 12.9 10.1 6.9 67 2.9 NNW 11 17 6 9 1014.2 1014.1 0.6
29/07:00am 11.1 8.7 7.2 77 1.9 N 9 11 5 6 1013.9 1013.8 0.6
29/06:30am 9.5 6.6 6.6 82 1.4 N 11 15 6 8 1013.3 1013.2 0.6
29/06:00am 9.7 6.6 7.3 85 1.1 NNE 13 15 7 8 1013.0 1012.9 0.6
29/05:30am 8.8 6.4 6.8 87 0.9 NNE 9 13 5 7 1013.2 1013.1 0.6
29/05:00am 9.5 7.5 7.1 85 1.1 N 7 9 4 5 1013.1 1013.0 0.6
29/04:30am 10.4 8.2 7.8 84 1.3 N 9 11 5 6 1013.1 1013.0 0.6
29/04:00am 10.7 8.9 8.1 84 1.3 NW 7 9 4 5 1013.1 1013.0 0.6
29/03:30am 10.7 9.0 8.5 86 1.1 NNE 7 9 4 5 1012.9 1012.8 0.6
29/03:00am 11.0 9.3 8.2 83 1.4 NW 7 11 4 6 1013.0 1012.9 0.6
29/02:30am 11.1 9.3 8.1 82 1.5 S 7 11 4 6 1012.7 1012.6 0.2
29/02:00am 11.7 10.9 8.2 79 1.7 N 2 7 1 4 1013.0 1012.9 0.2
29/01:30am 13.0 9.0 6.6 65 3.1 WNW 17 35 9 19 1013.6 1013.5 0.0
29/01:00am 12.2 7.3 4.9 61 3.4 N 20 28 11 15 1011.9 1011.8 0.0
29/12:30am 12.2 7.2 4.7 60 3.4 N 20 28 11 15 1012.2 1012.1 0.0
29/12:00am 12.7 7.3 4.7 58 3.7 N 22 30 12 16 1012.4 1012.3 0.0
 
Date/Time
WST
Temp
°C
App
Temp
°C
Dew
Point
Rel
Hum
%
Delta-T
°C
Wind Press
QNH
hPa
Press
MSL
hPa
Rain
since 9 am
mm
Dir
 
Spd
km/h
Gust
km/h
Spd
kts
Gust
kts
28/11:30pm 12.7 7.4 4.9 59 3.6 N 22 30 12 16 1012.6 1012.5 0.0
28/11:00pm 12.6 8.3 5.1 60 3.5 N 17 26 9 14 1013.2 1013.1 0.0
28/10:30pm 13.1 8.8 5.3 59 3.7 N 17 24 9 13 1013.6 1013.5 0.0
28/10:00pm 13.3 9.0 5.2 58 3.8 NNE 17 22 9 12 1013.8 1013.7 0.0
28/09:30pm 13.2 9.4 5.6 60 3.6 NNE 15 20 8 11 1014.1 1014.0 0.0
28/09:00pm 12.5 9.1 5.9 64 3.1 NNE 13 17 7 9 1014.5 1014.4 0.0
28/08:30pm 12.6 9.2 5.8 63 3.2 NNE 13 15 7 8 1014.7 1014.6 0.0
28/08:00pm 12.7 9.2 5.6 62 3.3 NNE 13 17 7 9 1014.9 1014.8 0.0
28/07:30pm 12.6 9.2 5.8 63 3.2 NNE 13 19 7 10 1015.0 1014.9 0.0
28/07:00pm 12.6 9.1 5.5 62 3.3 NNE 13 17 7 9 1015.0 1014.9 0.0
28/06:30pm 12.8 9.3 5.5 61 3.4 NNE 13 17 7 9 1015.2 1015.1 0.0
28/06:00pm 13.1 9.7 6.0 62 3.4 NNE 13 17 7 9 1015.2 1015.1 0.0
28/05:30pm 13.4 10.4 6.0 61 3.5 NNE 11 13 6 7 1015.2 1015.1 0.0
28/05:00pm 13.0 9.9 5.7 61 3.4 NNE 11 13 6 7 1015.0 1014.9 0.0
28/04:30pm 14.2 11.5 5.6 56 4.1 N 9 9 5 5 1015.2 1015.1 0.0
28/04:00pm 16.9 13.5 5.8 48 5.4 N 13 17 7 9 1015.4 1015.3 0.0
28/03:30pm 17.8 14.4 6.0 46 5.8 N 13 22 7 12 1015.5 1015.4 0.0
28/03:00pm 18.5 14.7 5.7 43 6.3 NW 15 20 8 11 1015.5 1015.4 0.0
28/02:30pm 18.4 14.2 5.9 44 6.2 NNW 17 24 9 13 1015.5 1015.4 0.0
28/02:00pm 18.4 14.3 6.3 45 6.0 NNW 17 28 9 15 1015.9 1015.8 0.0
28/01:30pm 18.0 14.7 8.0 52 5.1 NNW 15 20 8 11 1015.9 1015.8 0.0
28/01:00pm 17.2 13.7 7.0 51 5.1 N 15 26 8 14 1016.2 1016.1 0.0
28/12:30pm 17.2 13.7 7.3 52 5.0 NNW 15 20 8 11 1016.5 1016.4 0.0
28/12:00pm 17.4 14.4 7.7 53 4.9 N 13 20 7 11 1017.0 1016.9 0.0
28/11:30am 17.2 13.6 8.4 56 4.5 N 17 28 9 15 1017.7 1017.6 0.0
28/11:00am 18.0 14.1 8.6 54 4.9 N 19 28 10 15 1018.0 1017.9 0.0
28/10:30am 16.9 12.9 8.3 57 4.4 N 19 28 10 15 1018.7 1018.6 0.0
28/10:00am 17.0 13.0 8.4 57 4.4 N 19 28 10 15 1019.4 1019.2 0.0
28/09:30am 16.1 12.1 8.1 59 4.1 N 19 26 10 14 1020.3 1020.2 0.0
28/09:00am 15.2 11.5 8.0 62 3.6 N 17 22 9 12 1020.3 1020.2 0.0
28/08:30am 13.9 10.7 8.5 70 2.7 N 15 19 8 10 1020.5 1020.4 0.0
28/08:00am 11.0 8.1 8.2 83 1.4 N 13 17 7 9 1020.6 1020.5 0.0
28/07:30am 8.9 6.3 7.7 92 0.6 NNW 11 15 6 8 1020.5 1020.4 0.0
28/07:00am 7.0 4.1 6.3 95 0.3 NNW 11 15 6 8 1020.4 1020.3 0.0
28/06:30am 6.1 3.0 5.4 95 0.3 NNW 11 13 6 7 1020.3 1020.2 0.0
28/06:00am 6.4 3.3 5.7 95 0.3 NNW 11 13 6 7 1020.0 1019.9 0.0
28/05:30am 6.8 3.8 5.9 94 0.4 NNW 11 13 6 7 1019.9 1019.8 0.0
28/05:00am 7.0 4.0 6.1 94 0.4 NNW 11 11 6 6 1019.8 1019.7 0.0
28/04:30am 7.0 4.4 6.1 94 0.4 NNW 9 11 5 6 1019.7 1019.5 0.0
28/04:00am 7.1 4.5 6.0 93 0.5 NNW 9 11 5 6 1019.7 1019.5 0.0
28/03:30am 7.8 5.3 6.6 92 0.6 NNW 9 9 5 5 1019.7 1019.5 0.0
28/03:00am 8.5 6.1 7.1 91 0.7 NNW 9 11 5 6 1019.9 1019.8 0.0
28/02:30am 8.8 6.4 6.8 87 0.9 NNW 9 11 5 6 1019.9 1019.8 0.0
28/02:00am 9.8 7.8 7.1 83 1.3 NW 7 7 4 4 1020.2 1020.1 0.0
28/01:30am 11.3 9.1 7.8 79 1.7 NW 9 9 5 5 1020.6 1020.5 0.0
28/01:00am 10.9 8.6 7.4 79 1.7 NW 9 9 5 5 1020.7 1020.6 0.0
28/12:30am 10.4 8.0 7.1 80 1.6 NNW 9 11 5 6 1020.7 1020.6 0.0
28/12:00am 10.3 8.1 6.3 76 1.9 NW 7 9 4 5 1020.8 1020.7 0.0
 
Date/Time
WST
Temp
°C
App
Temp
°C
Dew
Point
Rel
Hum
%
Delta-T
°C
Wind Press
QNH
hPa
Press
MSL
hPa
Rain
since 9 am
mm
Dir
 
Spd
km/h
Gust
km/h
Spd
kts
Gust
kts
27/11:30pm 11.7 9.6 6.0 68 2.7 SW 6 7 3 4 1020.9 1020.8 0.0
27/11:00pm 13.3 11.4 6.9 65 3.1 SSW 6 9 3 5 1021.1 1021.0 0.0
27/10:30pm 13.9 11.1 7.0 63 3.4 SSW 11 17 6 9 1021.0 1020.9 0.0
27/10:00pm 14.6 11.5 7.4 62 3.6 SSW 13 22 7 12 1021.2 1021.1 0.0
27/09:30pm 14.7 11.8 8.2 65 3.3 S 13 19 7 10 1021.5 1021.4 0.0
27/09:00pm 14.8 12.4 8.5 66 3.2 SSW 11 17 6 9 1021.7 1021.6 0.0

Other Formats:

Comma delimited format used in spreadsheet applications
http://www.bom.gov.au/fwo/IDW60801/IDW60801.94647.axf

JavaScript Object Notation format (JSON) in row-major order
http://www.bom.gov.au/fwo/IDW60801/IDW60801.94647.json